Time;durP1;ratioP1;P1;durP2;ratioP2;P2;SDS_P1;SDS_P2;PMS_P1;PMS_P2;Temp;Humidity;BMP_temperature;BMP_pressure;BME280_temperature;BME280_humidity;BME280_pressure;Samples;Min_cycle;Max_cycle;Signal;HPM_P1;HPM_P2
2023/09/13 00:01:47;;;;;;;0.43;0.17;;;18.20;99.90;;;;;;5036706;28;20399;-73
2023/09/13 00:04:13;;;;;;;0.65;0.25;;;18.20;99.90;;;;;;5041194;28;20037;-73
2023/09/13 00:06:39;;;;;;;1.45;0.25;;;18.20;99.90;;;;;;5040612;28;20040;-73
2023/09/13 00:09:06;;;;;;;0.30;0.30;;;18.20;99.90;;;;;;5039128;28;20075;-73
2023/09/13 00:11:32;;;;;;;1.98;1.55;;;18.20;99.90;;;;;;5040060;28;20051;-73
2023/09/13 00:13:58;;;;;;;0.20;0.20;;;18.20;99.90;;;;;;5045764;28;20049;-73
2023/09/13 00:16:24;;;;;;;0.35;0.30;;;18.20;99.90;;;;;;5070446;28;20032;-72
2023/09/13 00:18:51;;;;;;;0.75;0.25;;;18.20;99.90;;;;;;5047560;28;20055;-73
2023/09/13 00:21:17;;;;;;;1.58;0.95;;;18.20;99.90;;;;;;5053256;28;20061;-73
2023/09/13 00:23:43;;;;;;;1.55;0.65;;;18.20;99.90;;;;;;5047641;28;20033;-73
2023/09/13 00:26:09;;;;;;;0.38;0.38;;;18.10;99.90;;;;;;5037700;28;20616;-73
2023/09/13 00:28:35;;;;;;;0.13;0.13;;;18.20;99.90;;;;;;5041901;28;20033;-73
2023/09/13 00:31:00;;;;;;;0.10;0.10;;;18.10;99.90;;;;;;5044709;28;20131;-73
2023/09/13 00:33:26;;;;;;;0.22;0.20;;;18.20;99.90;;;;;;5077198;28;20097;-73
2023/09/13 00:35:56;;;;;;;0.03;0.03;;;18.20;99.90;;;;;;5045247;28;20072;-73
2023/09/13 00:38:21;;;;;;;0.20;0.20;;;18.20;99.90;;;;;;5043744;28;20040;-72
2023/09/13 00:40:47;;;;;;;0.75;0.75;;;18.20;99.90;;;;;;5044466;28;20496;-71
2023/09/13 00:43:13;;;;;;;1.02;0.47;;;18.20;99.90;;;;;;5043938;28;20032;-71
2023/09/13 00:45:38;;;;;;;0.10;0.10;;;18.20;99.90;;;;;;5043257;28;20090;-71
2023/09/13 00:48:04;;;;;;;0.20;0.20;;;18.20;99.90;;;;;;5069623;28;20384;-70
2023/09/13 00:50:30;;;;;;;0.13;0.13;;;18.20;99.90;;;;;;5044997;28;20047;-71
2023/09/13 00:52:57;;;;;;;0.52;0.52;;;18.20;99.90;;;;;;5042511;28;20065;-71
2023/09/13 00:55:24;;;;;;;0.10;0.10;;;18.20;99.90;;;;;;5042130;28;20052;-71
2023/09/13 00:57:50;;;;;;;0.52;0.40;;;18.20;99.90;;;;;;5039638;28;20099;-72
2023/09/13 01:00:17;;;;;;;1.27;0.35;;;18.20;99.90;;;;;;5046783;28;20044;-71
2023/09/13 01:02:44;;;;;;;0.35;0.15;;;18.20;99.90;;;;;;5073827;28;20032;-71
2023/09/13 01:05:12;;;;;;;0.10;0.10;;;18.20;99.90;;;;;;5039026;28;21458;-72
2023/09/13 01:07:42;;;;;;;0.35;0.28;;;18.30;99.90;;;;;;5046561;28;20538;-71
2023/09/13 01:10:09;;;;;;;0.10;0.10;;;18.20;99.90;;;;;;5036760;28;20111;-71
2023/09/13 01:12:35;;;;;;;0.17;0.17;;;18.20;99.90;;;;;;5038962;28;20731;-71
2023/09/13 01:15:02;;;;;;;0.30;0.13;;;18.20;99.90;;;;;;5044184;28;20058;-70
2023/09/13 01:17:52;;;;;;;0.20;0.20;;;18.20;99.90;;;;;;5039493;28;20079;-71
2023/09/13 01:20:23;;;;;;;0.20;0.20;;;18.20;99.90;;;;;;5039508;28;20523;-71
2023/09/13 01:23:11;;;;;;;0.15;0.10;;;18.20;99.90;;;;;;5045636;28;20077;-71
2023/09/13 01:26:04;;;;;;;0.13;0.10;;;18.20;99.90;;;;;;5072802;28;20040;-71
2023/09/13 01:29:00;;;;;;;0.10;0.10;;;18.10;99.90;;;;;;5037598;28;20387;-70
2023/09/13 01:31:27;;;;;;;0.40;0.40;;;18.10;99.90;;;;;;5020659;28;20086;-71
2023/09/13 01:33:53;;;;;;;0.10;0.10;;;18.20;99.90;;;;;;5038650;28;20504;-72
2023/09/13 01:36:18;;;;;;;0.30;0.30;;;18.10;99.90;;;;;;5040669;28;20082;-71
2023/09/13 01:38:44;;;;;;;0.32;0.32;;;18.20;99.90;;;;;;5042105;28;20097;-71
2023/09/13 01:41:20;;;;;;;0.50;0.50;;;18.10;99.90;;;;;;5037230;28;20551;-71
2023/09/13 01:43:46;;;;;;;0.32;0.32;;;18.10;99.90;;;;;;5060885;28;20040;-72
2023/09/13 01:46:13;;;;;;;1.38;0.40;;;18.10;99.90;;;;;;5055755;28;21244;-72
2023/09/13 01:48:39;;;;;;;0.68;0.65;;;18.10;99.90;;;;;;5036451;28;20487;-73
2023/09/13 01:51:05;;;;;;;0.73;0.60;;;18.10;99.90;;;;;;5039464;28;20044;-72
2023/09/13 01:53:31;;;;;;;0.70;0.70;;;18.10;99.90;;;;;;5037515;28;20045;-71
2023/09/13 01:55:57;;;;;;;0.22;0.22;;;18.10;99.90;;;;;;5040882;28;20077;-73
2023/09/13 01:58:22;;;;;;;0.38;0.38;;;18.10;99.90;;;;;;5040773;28;20478;-72
2023/09/13 02:00:48;;;;;;;0.15;0.15;;;18.10;99.90;;;;;;5041715;28;20070;-73
2023/09/13 02:03:14;;;;;;;0.00;0.00;;;18.00;99.90;;;;;;5038797;28;20040;-70
2023/09/13 02:05:39;;;;;;;0.10;0.10;;;18.00;99.90;;;;;;5041179;28;20040;-70
2023/09/13 02:08:05;;;;;;;0.38;0.38;;;18.00;99.90;;;;;;5039277;28;20041;-72
2023/09/13 02:10:31;;;;;;;0.30;0.20;;;18.00;99.90;;;;;;5038416;28;20040;-70
2023/09/13 02:12:59;;;;;;;0.00;0.00;;;18.00;99.90;;;;;;5038905;28;20040;-71
2023/09/13 02:15:27;;;;;;;0.20;0.20;;;18.00;99.90;;;;;;5027743;28;20042;-71
2023/09/13 02:17:52;;;;;;;0.00;0.00;;;18.00;99.90;;;;;;5044013;28;20068;-71
2023/09/13 02:20:18;;;;;;;0.20;0.10;;;17.90;99.90;;;;;;5042414;28;20754;-72
2023/09/13 02:22:43;;;;;;;0.80;0.80;;;17.90;99.90;;;;;;5036739;28;20037;-71
2023/09/13 02:25:09;;;;;;;0.03;0.03;;;17.90;99.90;;;;;;5037205;28;20131;-71
2023/09/13 02:27:34;;;;;;;0.32;0.32;;;17.90;99.90;;;;;;5036600;28;20086;-71
2023/09/13 02:30:04;;;;;;;0.17;0.17;;;17.90;99.90;;;;;;5042913;28;20048;-71
2023/09/13 02:32:30;;;;;;;0.10;0.10;;;17.90;99.90;;;;;;5038984;28;20047;-71
2023/09/13 02:34:55;;;;;;;0.00;0.00;;;17.90;99.90;;;;;;5040795;28;20045;-71
2023/09/13 02:37:21;;;;;;;0.47;0.47;;;17.90;99.90;;;;;;5037213;28;20493;-71
2023/09/13 02:39:46;;;;;;;0.00;0.00;;;17.80;99.90;;;;;;5059546;28;20474;-71
2023/09/13 02:42:12;;;;;;;1.17;0.30;;;17.80;99.90;;;;;;5037852;28;20537;-70
2023/09/13 02:44:38;;;;;;;0.10;0.10;;;17.80;99.90;;;;;;5042769;28;20032;-71
2023/09/13 02:47:03;;;;;;;0.05;0.05;;;17.80;99.90;;;;;;5040788;28;20074;-70
2023/09/13 02:49:31;;;;;;;0.10;0.10;;;17.70;99.90;;;;;;5045022;28;20123;-70
2023/09/13 02:51:57;;;;;;;3.75;0.55;;;17.80;99.90;;;;;;5035578;28;20040;-69
2023/09/13 02:54:22;;;;;;;0.10;0.10;;;17.70;99.90;;;;;;5037708;28;20610;-69
2023/09/13 02:56:49;;;;;;;0.50;0.50;;;17.70;99.90;;;;;;5033279;28;20044;-69
2023/09/13 02:59:15;;;;;;;0.00;0.00;;;17.70;99.90;;;;;;5069150;28;20076;-68
2023/09/13 03:01:42;;;;;;;0.00;0.00;;;17.70;99.90;;;;;;5037470;28;20134;-68
2023/09/13 03:04:08;;;;;;;0.05;0.05;;;17.70;99.90;;;;;;5040277;28;20032;-68
2023/09/13 03:06:34;;;;;;;0.10;0.10;;;17.60;99.90;;;;;;5042392;28;20475;-68
2023/09/13 03:08:59;;;;;;;0.28;0.28;;;17.60;99.90;;;;;;5046298;28;20144;-67
2023/09/13 03:11:25;;;;;;;0.10;0.10;;;17.60;99.90;;;;;;5041478;28;20147;-67
2023/09/13 03:13:51;;;;;;;0.10;0.10;;;17.50;99.90;;;;;;5072315;28;20048;-67
2023/09/13 03:16:18;;;;;;;0.17;0.17;;;17.50;99.90;;;;;;5044961;28;20044;-67
2023/09/13 03:18:45;;;;;;;0.00;0.00;;;17.50;99.90;;;;;;5039332;28;20045;-67
2023/09/13 03:21:12;;;;;;;0.35;0.22;;;17.50;99.90;;;;;;5039398;28;20037;-66
2023/09/13 03:23:39;;;;;;;2.75;0.63;;;17.40;99.90;;;;;;5040148;28;20036;-66
2023/09/13 03:26:18;;;;;;;0.00;0.00;;;17.40;99.90;;;;;;5043706;28;20033;-67
2023/09/13 03:28:52;;;;;;;0.17;0.17;;;17.40;99.90;;;;;;5051282;28;20064;-67
2023/09/13 03:31:22;;;;;;;0.30;0.17;;;17.40;99.90;;;;;;5038179;28;20406;-67
2023/09/13 03:33:50;;;;;;;0.20;0.20;;;17.30;99.90;;;;;;5041836;28;20255;-68
2023/09/13 03:36:16;;;;;;;2.30;0.30;;;17.30;99.90;;;;;;5039053;28;20388;-67
2023/09/13 03:38:43;;;;;;;0.77;0.32;;;17.20;99.90;;;;;;5035983;28;20052;-67
2023/09/13 03:41:12;;;;;;;0.25;0.25;;;17.20;99.90;;;;;;5037318;28;20775;-67
2023/09/13 03:43:37;;;;;;;0.43;0.35;;;17.20;99.90;;;;;;5061434;28;20048;-67
2023/09/13 03:46:04;;;;;;;0.05;0.05;;;17.10;99.90;;;;;;5042312;28;20036;-67
2023/09/13 03:48:34;;;;;;;0.47;0.43;;;17.10;99.90;;;;;;5042722;28;20045;-66
2023/09/13 03:51:00;;;;;;;0.28;0.28;;;17.10;99.90;;;;;;5042839;28;20048;-67
2023/09/13 03:53:26;;;;;;;0.00;0.00;;;17.10;99.90;;;;;;5074229;28;20089;-66
2023/09/13 03:55:53;;;;;;;0.10;0.10;;;17.00;99.90;;;;;;5061411;28;20060;-67
2023/09/13 03:58:19;;;;;;;0.00;0.00;;;17.00;99.90;;;;;;5040178;28;21403;-68
2023/09/13 04:00:45;;;;;;;0.10;0.10;;;16.90;99.90;;;;;;5047581;28;20490;-67
2023/09/13 04:03:12;;;;;;;0.50;0.40;;;16.90;99.90;;;;;;5040279;28;20178;-67
2023/09/13 04:05:37;;;;;;;0.68;0.68;;;16.90;99.90;;;;;;5038051;28;20044;-67
2023/09/13 04:08:03;;;;;;;0.00;0.00;;;16.90;99.90;;;;;;5038049;28;20056;-68
2023/09/13 04:10:29;;;;;;;0.13;0.13;;;16.90;99.90;;;;;;5042709;28;20067;-67
2023/09/13 04:12:55;;;;;;;0.10;0.10;;;16.80;99.90;;;;;;5038748;28;20040;-67
2023/09/13 04:15:20;;;;;;;1.08;0.65;;;16.90;99.90;;;;;;5037517;28;20651;-68
2023/09/13 04:17:46;;;;;;;0.00;0.00;;;16.90;99.90;;;;;;5072738;28;20037;-68
2023/09/13 04:20:12;;;;;;;0.20;0.20;;;16.80;99.90;;;;;;5039869;28;20251;-68
2023/09/13 04:22:38;;;;;;;0.43;0.43;;;16.80;99.90;;;;;;5037632;28;20044;-67
2023/09/13 04:25:07;;;;;;;0.40;0.20;;;16.80;99.90;;;;;;5072113;28;20047;-68
2023/09/13 04:27:32;;;;;;;0.20;0.20;;;16.80;99.90;;;;;;5069877;28;20036;-68
2023/09/13 04:29:58;;;;;;;0.00;0.00;;;16.80;99.90;;;;;;5035814;28;20439;-67
2023/09/13 04:32:24;;;;;;;0.25;0.25;;;16.80;99.90;;;;;;5036764;28;20051;-67
2023/09/13 04:34:51;;;;;;;0.10;0.10;;;16.70;99.90;;;;;;5035739;28;20044;-67
2023/09/13 04:37:16;;;;;;;0.17;0.10;;;16.70;99.90;;;;;;5049819;28;20091;-68
2023/09/13 04:39:42;;;;;;;0.20;0.20;;;16.70;99.90;;;;;;5057044;28;20068;-67
2023/09/13 04:42:08;;;;;;;0.10;0.10;;;16.70;99.90;;;;;;5034609;28;20049;-66
2023/09/13 04:44:33;;;;;;;0.00;0.00;;;16.60;99.90;;;;;;5051266;28;20431;-68
2023/09/13 04:47:01;;;;;;;0.20;0.13;;;16.60;99.90;;;;;;5044121;28;20131;-69
2023/09/13 04:49:27;;;;;;;1.45;1.23;;;16.60;99.90;;;;;;5047334;28;20085;-65
2023/09/13 04:51:54;;;;;;;0.10;0.10;;;16.60;99.90;;;;;;5044684;28;20135;-67
2023/09/13 04:54:22;;;;;;;0.45;0.40;;;16.60;99.90;;;;;;5044038;28;20076;-65
2023/09/13 04:56:48;;;;;;;0.20;0.20;;;16.50;99.90;;;;;;5057210;28;20144;-66
2023/09/13 04:59:14;;;;;;;0.00;0.00;;;16.60;99.90;;;;;;5068563;28;20078;-66
2023/09/13 05:01:40;;;;;;;0.00;0.00;;;16.50;99.90;;;;;;5075271;28;20304;-63
2023/09/13 05:04:05;;;;;;;0.00;0.00;;;16.40;99.90;;;;;;5037957;28;20384;-66
2023/09/13 05:06:31;;;;;;;0.00;0.00;;;16.30;99.90;;;;;;5039766;28;20455;-66
2023/09/13 05:08:56;;;;;;;0.00;0.00;;;16.20;99.90;;;;;;5037356;28;20150;-65
2023/09/13 05:11:23;;;;;;;0.10;0.10;;;16.10;99.90;;;;;;5040066;28;20052;-65
2023/09/13 05:13:50;;;;;;;0.00;0.00;;;16.10;99.90;;;;;;5054699;28;20037;-66
2023/09/13 05:16:19;;;;;;;0.05;0.05;;;16.10;99.90;;;;;;5036966;28;20067;-66
2023/09/13 05:18:46;;;;;;;0.75;0.28;;;16.00;99.90;;;;;;5036665;28;20098;-71
2023/09/13 05:21:11;;;;;;;0.00;0.00;;;16.00;99.90;;;;;;5069756;28;20048;-68
2023/09/13 05:23:37;;;;;;;0.10;0.10;;;16.10;99.90;;;;;;5019856;28;20044;-66
2023/09/13 05:26:02;;;;;;;0.00;0.00;;;16.00;99.90;;;;;;5035334;28;20392;-67
2023/09/13 05:28:33;;;;;;;0.10;0.10;;;16.00;99.90;;;;;;5037567;28;20068;-71
2023/09/13 05:31:03;;;;;;;0.00;0.00;;;15.80;99.90;;;;;;5075741;28;20077;-68
2023/09/13 05:33:28;;;;;;;0.45;0.30;;;15.90;99.90;;;;;;5036028;28;20048;-70
2023/09/13 05:35:54;;;;;;;0.10;0.10;;;15.60;99.90;;;;;;5049707;28;20043;-68
2023/09/13 05:38:21;;;;;;;0.00;0.00;;;15.40;99.90;;;;;;5038890;28;20466;-70
2023/09/13 05:40:46;;;;;;;0.35;0.30;;;15.10;99.90;;;;;;5070412;28;20041;-67
2023/09/13 05:43:12;;;;;;;0.10;0.10;;;15.00;99.90;;;;;;5041912;28;20040;-72
2023/09/13 05:45:40;;;;;;;0.20;0.10;;;14.80;99.90;;;;;;5075592;28;20063;-66
2023/09/13 05:48:06;;;;;;;1.25;0.30;;;14.70;99.90;;;;;;5067586;28;20052;-74
2023/09/13 05:50:31;;;;;;;3.50;0.10;;;14.60;99.90;;;;;;5044738;28;20498;-64
2023/09/13 05:52:57;;;;;;;0.00;0.00;;;14.60;99.90;;;;;;5042311;28;20045;-66
2023/09/13 05:55:22;;;;;;;0.30;0.30;;;14.60;99.90;;;;;;5055469;28;20063;-65
2023/09/13 05:57:50;;;;;;;0.08;0.08;;;14.50;99.90;;;;;;5031632;28;20047;-66
2023/09/13 06:00:16;;;;;;;0.00;0.00;;;14.50;99.90;;;;;;5050384;28;20032;-65
2023/09/13 06:02:42;;;;;;;0.30;0.30;;;14.40;99.90;;;;;;5038016;28;20583;-67
2023/09/13 06:05:10;;;;;;;6.07;0.65;;;14.40;99.90;;;;;;5061504;28;20047;-66
2023/09/13 06:07:36;;;;;;;0.00;0.00;;;14.50;99.90;;;;;;5053844;28;20398;-67
2023/09/13 06:10:06;;;;;;;0.10;0.10;;;14.40;99.90;;;;;;5035173;28;20047;-66
2023/09/13 06:12:31;;;;;;;0.03;0.03;;;14.50;99.90;;;;;;5049992;28;20056;-69
2023/09/13 06:14:59;;;;;;;0.00;0.00;;;14.40;99.90;;;;;;5047328;28;20132;-70
2023/09/13 06:17:24;;;;;;;0.00;0.00;;;14.50;99.90;;;;;;5036895;28;20047;-66
2023/09/13 06:19:51;;;;;;;0.43;0.43;;;14.50;99.90;;;;;;5053019;28;20131;-68
2023/09/13 06:22:17;;;;;;;0.38;0.38;;;14.50;99.90;;;;;;5038854;28;20045;-69
2023/09/13 06:24:46;;;;;;;0.20;0.20;;;14.40;99.90;;;;;;5048751;28;20041;-68
2023/09/13 06:27:11;;;;;;;0.20;0.20;;;14.40;99.90;;;;;;5043932;28;20505;-69
2023/09/13 06:29:37;;;;;;;0.10;0.10;;;14.30;99.90;;;;;;5017306;28;20076;-67
2023/09/13 06:32:03;;;;;;;0.00;0.00;;;14.40;99.90;;;;;;5053744;28;20124;-67
2023/09/13 06:34:28;;;;;;;0.00;0.00;;;14.30;99.90;;;;;;5057417;28;20090;-68
2023/09/13 06:36:55;;;;;;;0.00;0.00;;;14.30;99.90;;;;;;5040309;28;20119;-68
2023/09/13 06:39:21;;;;;;;0.10;0.10;;;14.40;99.90;;;;;;5033143;28;20146;-66
2023/09/13 06:41:46;;;;;;;0.03;0.03;;;14.40;99.90;;;;;;5049995;28;20040;-66
2023/09/13 06:44:12;;;;;;;0.00;0.00;;;14.30;99.90;;;;;;5049148;28;20036;-67
2023/09/13 06:46:38;;;;;;;1.02;0.38;;;14.40;99.90;;;;;;5037055;28;20086;-68
2023/09/13 06:49:04;;;;;;;0.00;0.00;;;14.30;99.90;;;;;;5025240;28;20387;-68
2023/09/13 06:51:30;;;;;;;0.10;0.10;;;14.40;99.90;;;;;;5023555;28;20120;-66
2023/09/13 06:53:56;;;;;;;0.52;0.10;;;14.30;99.90;;;;;;5014748;28;20049;-68
2023/09/13 06:56:22;;;;;;;0.00;0.00;;;14.30;99.90;;;;;;5012174;28;20488;-65
2023/09/13 06:58:47;;;;;;;1.25;1.00;;;14.30;99.90;;;;;;5019738;28;20057;-65
2023/09/13 07:01:13;;;;;;;0.03;0.03;;;14.20;99.90;;;;;;5011237;28;20055;-67
2023/09/13 07:03:39;;;;;;;0.00;0.00;;;14.20;99.90;;;;;;5030717;28;20045;-67
2023/09/13 07:06:05;;;;;;;0.00;0.00;;;14.20;99.90;;;;;;5028543;28;20080;-69
2023/09/13 07:08:31;;;;;;;0.00;0.00;;;14.20;99.90;;;;;;5020142;28;20033;-67
2023/09/13 07:10:56;;;;;;;0.00;0.00;;;14.20;99.90;;;;;;5017492;28;20400;-69
2023/09/13 07:13:22;;;;;;;0.05;0.05;;;14.20;99.90;;;;;;5033704;28;20351;-68
2023/09/13 07:15:48;;;;;;;0.40;0.40;;;14.20;99.90;;;;;;5028955;28;20051;-69
2023/09/13 07:18:14;;;;;;;0.28;0.28;;;14.20;99.90;;;;;;5025293;28;20506;-68
2023/09/13 07:20:40;;;;;;;0.10;0.10;;;14.30;99.90;;;;;;5030280;28;20127;-70
2023/09/13 07:23:06;;;;;;;0.15;0.10;;;14.20;99.90;;;;;;5015271;28;20558;-72
2023/09/13 07:25:31;;;;;;;0.30;0.30;;;14.20;99.90;;;;;;5032700;28;20064;-69
2023/09/13 07:27:59;;;;;;;0.10;0.10;;;14.20;99.90;;;;;;5025439;28;20502;-68
2023/09/13 07:30:25;;;;;;;0.05;0.05;;;14.30;99.90;;;;;;5019683;28;20414;-67
2023/09/13 07:32:51;;;;;;;0.63;0.60;;;14.30;99.90;;;;;;5029366;28;20037;-71
2023/09/13 07:35:16;;;;;;;0.13;0.13;;;14.40;99.90;;;;;;5028299;28;20041;-68
2023/09/13 07:37:42;;;;;;;0.10;0.10;;;14.40;99.90;;;;;;5013096;28;20037;-67
2023/09/13 07:40:14;;;;;;;0.10;0.10;;;14.50;99.90;;;;;;5024603;28;20127;-67
2023/09/13 07:42:39;;;;;;;0.10;0.10;;;14.50;99.90;;;;;;5022627;28;20037;-68
2023/09/13 07:45:07;;;;;;;0.30;0.30;;;14.50;99.90;;;;;;5023918;28;20684;-66
2023/09/13 07:47:32;;;;;;;1.30;0.30;;;14.50;99.90;;;;;;5014909;28;20039;-68
2023/09/13 07:49:59;;;;;;;0.00;0.00;;;14.50;99.90;;;;;;5023290;28;20049;-67
2023/09/13 07:52:24;;;;;;;0.75;0.20;;;14.40;99.90;;;;;;5022470;28;20068;-68
2023/09/13 07:54:50;;;;;;;0.63;0.20;;;14.50;99.90;;;;;;5021387;28;20041;-66
2023/09/13 07:57:16;;;;;;;0.30;0.20;;;14.40;99.90;;;;;;5008168;28;20178;-68
2023/09/13 07:59:42;;;;;;;0.10;0.10;;;14.50;99.90;;;;;;5008310;28;20535;-67
2023/09/13 08:02:08;;;;;;;0.43;0.30;;;14.50;99.90;;;;;;5015376;28;20226;-67
2023/09/13 08:04:33;;;;;;;0.95;0.95;;;14.50;99.90;;;;;;5017823;28;20115;-67
2023/09/13 08:06:59;;;;;;;0.65;0.57;;;14.60;99.90;;;;;;5013234;28;20044;-66
2023/09/13 08:09:25;;;;;;;0.10;0.10;;;14.70;99.90;;;;;;5021413;28;20045;-65
2023/09/13 08:11:52;;;;;;;0.30;0.30;;;14.80;99.90;;;;;;5013249;28;20485;-67
2023/09/13 08:14:18;;;;;;;0.10;0.10;;;14.90;99.90;;;;;;5017228;28;21366;-65
2023/09/13 08:16:44;;;;;;;0.50;0.50;;;14.90;99.90;;;;;;5013690;28;20041;-66
2023/09/13 08:19:09;;;;;;;0.30;0.30;;;14.90;99.90;;;;;;5014354;28;20044;-65
2023/09/13 08:21:35;;;;;;;0.15;0.15;;;14.90;99.90;;;;;;5010360;28;20421;-67
2023/09/13 08:24:01;;;;;;;0.75;0.47;;;14.90;99.90;;;;;;5021042;28;20045;-66
2023/09/13 08:26:26;;;;;;;0.00;0.00;;;14.80;99.90;;;;;;5019478;28;20116;-68
2023/09/13 08:28:52;;;;;;;0.30;0.30;;;14.70;99.90;;;;;;5019085;28;20484;-66
2023/09/13 08:31:18;;;;;;;3.10;0.32;;;14.70;99.90;;;;;;5017032;28;20096;-68
2023/09/13 08:33:43;;;;;;;0.38;0.38;;;14.70;99.90;;;;;;5019810;28;20523;-68
2023/09/13 08:36:09;;;;;;;0.28;0.28;;;14.70;99.90;;;;;;5021243;28;20061;-69
2023/09/13 08:38:34;;;;;;;0.57;0.47;;;14.70;99.90;;;;;;5019763;28;20042;-68
2023/09/13 08:41:02;;;;;;;0.00;0.00;;;14.70;99.90;;;;;;5018782;28;20439;-67
2023/09/13 08:43:28;;;;;;;0.10;0.10;;;14.80;99.90;;;;;;5025718;28;20049;-68
2023/09/13 08:45:55;;;;;;;0.10;0.10;;;14.80;99.90;;;;;;5033280;28;20431;-66
2023/09/13 08:48:21;;;;;;;0.20;0.20;;;14.90;99.90;;;;;;5033722;28;20040;-67
2023/09/13 08:50:48;;;;;;;0.10;0.10;;;15.00;99.90;;;;;;5032261;28;20091;-70
2023/09/13 08:53:16;;;;;;;0.10;0.10;;;15.00;99.90;;;;;;5016940;28;20053;-68
2023/09/13 08:55:44;;;;;;;0.25;0.25;;;15.00;99.90;;;;;;5031876;28;20044;-69
2023/09/13 08:58:10;;;;;;;0.55;0.55;;;15.10;99.90;;;;;;5029058;28;20037;-68
2023/09/13 09:00:39;;;;;;;0.10;0.10;;;15.10;99.90;;;;;;5028971;28;20048;-66
2023/09/13 09:03:07;;;;;;;0.32;0.32;;;15.20;99.90;;;;;;5027481;28;20229;-66
2023/09/13 09:05:34;;;;;;;0.10;0.10;;;15.20;99.90;;;;;;4998507;28;20040;-67
2023/09/13 09:08:02;;;;;;;0.88;0.75;;;15.40;99.90;;;;;;5022411;28;20401;-68
2023/09/13 09:10:29;;;;;;;0.10;0.10;;;15.40;99.90;;;;;;5035436;28;20037;-67
2023/09/13 09:12:57;;;;;;;4.00;0.68;;;15.40;99.90;;;;;;5028823;28;20041;-67
2023/09/13 09:15:28;;;;;;;0.10;0.10;;;15.50;99.90;;;;;;5032486;28;20041;-68
2023/09/13 09:17:56;;;;;;;0.95;0.95;;;15.40;99.90;;;;;;5027245;28;20041;-67
2023/09/13 09:20:28;;;;;;;0.50;0.50;;;15.40;99.90;;;;;;5027663;28;20431;-69
2023/09/13 09:22:58;;;;;;;0.52;0.52;;;15.50;99.90;;;;;;5027146;28;20059;-66
2023/09/13 09:25:25;;;;;;;0.10;0.10;;;15.50;99.90;;;;;;5029501;28;20048;-68
2023/09/13 09:27:50;;;;;;;1.10;0.20;;;15.60;99.90;;;;;;5027448;28;20045;-68
2023/09/13 09:30:28;;;;;;;2.35;0.60;;;15.60;99.90;;;;;;5027200;28;20033;-68
2023/09/13 09:33:03;;;;;;;0.45;0.30;;;15.70;99.90;;;;;;5028753;28;20060;-68
2023/09/13 09:35:29;;;;;;;0.10;0.10;;;15.60;99.90;;;;;;5021842;28;20048;-67
2023/09/13 09:37:54;;;;;;;0.25;0.20;;;15.60;99.90;;;;;;5019177;28;20139;-67
2023/09/13 09:40:20;;;;;;;6.22;0.30;;;15.60;99.90;;;;;;5018811;28;20072;-68
2023/09/13 09:42:52;;;;;;;1.20;0.15;;;15.50;99.90;;;;;;5024843;28;20044;-69
2023/09/13 09:45:19;;;;;;;1.75;0.38;;;15.60;99.90;;;;;;5025462;28;20037;-67
2023/09/13 09:47:44;;;;;;;7.63;0.25;;;15.60;99.90;;;;;;5023471;28;20045;-66
2023/09/13 09:50:11;;;;;;;0.03;0.03;;;15.60;99.90;;;;;;5022629;28;20051;-67
2023/09/13 09:52:36;;;;;;;0.63;0.30;;;15.80;99.90;;;;;;5028130;28;20475;-69
2023/09/13 09:55:04;;;;;;;0.20;0.17;;;15.80;99.90;;;;;;5014521;28;20056;-71
2023/09/13 09:57:29;;;;;;;0.40;0.40;;;16.00;99.90;;;;;;5023061;28;20053;-70
2023/09/13 09:59:58;;;;;;;0.30;0.30;;;16.00;99.90;;;;;;5013436;28;20059;-74
2023/09/13 10:02:27;;;;;;;2.45;0.43;;;16.20;99.90;;;;;;5020604;28;20037;-73
2023/09/13 10:04:53;;;;;;;1.35;0.80;;;16.40;99.90;;;;;;5034126;28;20037;-70
2023/09/13 10:07:19;;;;;;;0.00;0.00;;;16.70;99.90;;;;;;5017442;28;20076;-70
2023/09/13 10:09:46;;;;;;;0.57;0.57;;;16.70;99.90;;;;;;5013930;28;20435;-70
2023/09/13 10:12:13;;;;;;;0.10;0.10;;;16.90;99.90;;;;;;5027656;28;20385;-72
2023/09/13 10:14:44;;;;;;;0.20;0.20;;;16.90;99.90;;;;;;5025930;28;20531;-74
2023/09/13 10:17:10;;;;;;;0.17;0.17;;;17.00;99.90;;;;;;5005241;28;20076;-70
2023/09/13 10:19:36;;;;;;;0.10;0.10;;;16.80;99.90;;;;;;5027418;28;20047;-70
2023/09/13 10:22:03;;;;;;;0.57;0.57;;;16.50;99.90;;;;;;5032850;28;20053;-71
2023/09/13 10:24:53;;;;;;;0.60;0.60;;;16.00;99.90;;;;;;5018282;28;20180;-68
2023/09/13 10:27:22;;;;;;;0.10;0.10;;;15.60;99.90;;;;;;5020589;28;20095;-72
2023/09/13 10:30:00;;;;;;;0.00;0.00;;;15.30;99.90;;;;;;5027906;28;20036;-71
2023/09/13 10:32:32;;;;;;;0.20;0.20;;;15.00;99.90;;;;;;5024357;28;20041;-66
2023/09/13 10:35:00;;;;;;;0.00;0.00;;;14.90;99.90;;;;;;5017209;28;20051;-68
2023/09/13 10:37:59;;;;;;;0.15;0.15;;;14.90;99.90;;;;;;5026256;28;20126;-68
2023/09/13 10:40:33;;;;;;;0.40;0.40;;;14.90;99.90;;;;;;5014093;28;20042;-70
2023/09/13 10:43:00;;;;;;;0.22;0.10;;;14.90;99.90;;;;;;5024984;28;20480;-70
2023/09/13 10:45:27;;;;;;;0.22;0.17;;;14.90;99.90;;;;;;5032877;28;20037;-68
2023/09/13 10:47:54;;;;;;;0.20;0.20;;;14.90;99.90;;;;;;5027167;28;20048;-67
2023/09/13 10:50:20;;;;;;;0.10;0.10;;;14.90;99.90;;;;;;5031243;28;20438;-68
2023/09/13 10:52:49;;;;;;;0.10;0.10;;;15.00;99.90;;;;;;5030389;28;20041;-69
2023/09/13 10:55:15;;;;;;;0.35;0.30;;;15.10;99.90;;;;;;5032727;28;20206;-70
2023/09/13 10:57:41;;;;;;;0.10;0.10;;;15.20;99.90;;;;;;5014722;28;20124;-68
2023/09/13 11:00:11;;;;;;;0.30;0.30;;;15.30;99.90;;;;;;5016222;28;20446;-68
2023/09/13 11:02:38;;;;;;;4.95;0.57;;;15.30;99.90;;;;;;5027682;28;20044;-69
2023/09/13 11:05:04;;;;;;;0.43;0.43;;;15.40;99.90;;;;;;5033603;28;20040;-67
2023/09/13 11:07:33;;;;;;;0.32;0.32;;;15.40;99.90;;;;;;5014418;28;20033;-67
2023/09/13 11:10:05;;;;;;;0.57;0.20;;;15.60;99.90;;;;;;5016166;28;20056;-67
2023/09/13 11:12:35;;;;;;;0.20;0.10;;;15.70;99.90;;;;;;5014719;28;20404;-70
2023/09/13 11:15:21;;;;;;;0.10;0.10;;;15.80;99.90;;;;;;5032354;28;20049;-68
2023/09/13 11:17:47;;;;;;;0.88;0.40;;;15.90;99.90;;;;;;5031788;28;20119;-68
2023/09/13 11:20:36;;;;;;;0.38;0.20;;;16.00;99.90;;;;;;5033611;28;20090;-67
2023/09/13 11:23:09;;;;;;;0.93;0.20;;;16.10;99.90;;;;;;5013021;28;20045;-71
2023/09/13 11:25:42;;;;;;;0.25;0.25;;;16.10;99.90;;;;;;5014963;28;20495;-69
2023/09/13 11:28:26;;;;;;;0.20;0.20;;;16.10;99.90;;;;;;5018978;28;20087;-71
2023/09/13 11:30:52;;;;;;;0.65;0.60;;;16.20;99.90;;;;;;5026662;28;20090;-71
2023/09/13 11:33:18;;;;;;;2.08;1.42;;;16.20;99.90;;;;;;5017358;28;20116;-68
2023/09/13 11:35:44;;;;;;;0.35;0.13;;;16.30;99.90;;;;;;5031067;28;20033;-69
2023/09/13 11:38:16;;;;;;;0.10;0.10;;;16.40;99.90;;;;;;5027507;28;20084;-70
2023/09/13 11:40:47;;;;;;;0.63;0.20;;;16.30;99.90;;;;;;5029045;28;20045;-70
2023/09/13 11:43:18;;;;;;;0.20;0.20;;;16.40;99.90;;;;;;5024751;28;20296;-71
2023/09/13 11:45:46;;;;;;;0.10;0.10;;;16.60;99.90;;;;;;5023432;28;20530;-70
2023/09/13 11:48:12;;;;;;;0.47;0.20;;;16.60;99.90;;;;;;5035834;28;20048;-68
2023/09/13 11:50:43;;;;;;;0.55;0.20;;;16.70;99.90;;;;;;5013809;28;20037;-70
2023/09/13 11:53:15;;;;;;;0.10;0.10;;;16.90;99.90;;;;;;5015072;28;20408;-70
2023/09/13 11:55:49;;;;;;;0.17;0.17;;;17.00;99.90;;;;;;5002463;28;20045;-68
2023/09/13 11:58:16;;;;;;;0.00;0.00;;;17.20;99.90;;;;;;5057877;28;20051;-70
2023/09/13 12:00:43;;;;;;;3.72;0.22;;;17.20;99.90;;;;;;5008552;28;20060;-70
2023/09/13 12:03:08;;;;;;;0.40;0.40;;;17.30;99.90;;;;;;5014797;28;20037;-69
2023/09/13 12:05:38;;;;;;;0.28;0.28;;;17.30;99.90;;;;;;5018574;28;20369;-68
2023/09/13 12:08:22;;;;;;;0.13;0.13;;;17.30;99.90;;;;;;5033087;28;20036;-72
2023/09/13 12:10:49;;;;;;;1.20;0.32;;;17.20;99.90;;;;;;5017391;28;20037;-73
2023/09/13 12:13:15;;;;;;;0.32;0.32;;;17.20;99.90;;;;;;5029794;28;20071;-71
2023/09/13 12:15:57;;;;;;;0.10;0.10;;;17.20;99.90;;;;;;5016949;28;20037;-70
2023/09/13 12:18:23;;;;;;;0.28;0.28;;;17.20;99.90;;;;;;5020192;28;20040;-67
2023/09/13 12:20:49;;;;;;;0.40;0.40;;;17.30;99.90;;;;;;5045620;28;20387;-69
2023/09/13 12:23:18;;;;;;;12.40;0.75;;;17.30;99.90;;;;;;5017145;28;20132;-73
2023/09/13 12:25:46;;;;;;;0.10;0.10;;;17.40;99.90;;;;;;5018039;28;20041;-70
2023/09/13 12:28:11;;;;;;;0.75;0.20;;;17.40;99.90;;;;;;5032475;28;20033;-70
2023/09/13 12:30:37;;;;;;;2.17;0.35;;;17.40;99.90;;;;;;5049756;28;20032;-71
2023/09/13 12:33:03;;;;;;;0.10;0.10;;;17.30;99.90;;;;;;5050001;28;20064;-74
2023/09/13 12:35:31;;;;;;;0.20;0.20;;;17.30;99.90;;;;;;5016980;28;20044;-72
2023/09/13 12:38:00;;;;;;;0.63;0.63;;;17.30;99.90;;;;;;5032694;28;20084;-72
2023/09/13 12:40:29;;;;;;;0.30;0.30;;;17.40;99.90;;;;;;5036452;28;20079;-67
2023/09/13 12:42:58;;;;;;;0.38;0.38;;;17.50;99.90;;;;;;5031736;28;20056;-68
2023/09/13 12:45:28;;;;;;;0.28;0.28;;;17.60;99.90;;;;;;5036390;28;20036;-67
2023/09/13 12:47:55;;;;;;;0.22;0.22;;;17.50;99.90;;;;;;5060947;28;20468;-67
2023/09/13 12:50:21;;;;;;;0.90;0.55;;;17.50;99.90;;;;;;5053472;28;20071;-67